createdAt,value
2018-01-31T01:53:37.679Z,7.30
2018-01-31T01:56:05.155Z,7.20
2018-01-31T01:58:32.619Z,7.07
2018-01-31T02:01:00.095Z,7.07
2018-01-31T02:03:27.563Z,6.50
2018-01-31T02:05:55.012Z,6.67
2018-01-31T02:08:22.491Z,6.90
2018-01-31T02:10:49.951Z,7.40
2018-01-31T02:13:17.419Z,6.93
2018-01-31T02:15:44.903Z,6.63
2018-01-31T02:18:12.345Z,7.10
2018-01-31T02:20:39.808Z,6.63
2018-01-31T02:23:07.269Z,6.73
2018-01-31T02:25:34.720Z,6.53
2018-01-31T02:28:02.191Z,6.50
2018-01-31T02:30:29.668Z,6.50
2018-01-31T02:32:57.133Z,6.90
2018-01-31T02:35:24.576Z,7.17
2018-01-31T02:37:52.057Z,6.50
2018-01-31T02:40:19.517Z,7.00
2018-01-31T02:42:46.974Z,7.05
2018-01-31T02:45:14.436Z,6.90
2018-01-31T02:47:41.937Z,6.70
2018-01-31T02:50:09.383Z,6.23
2018-01-31T02:52:37.199Z,6.37
2018-01-31T02:55:04.647Z,6.63
2018-01-31T02:57:32.129Z,6.70
2018-01-31T02:59:59.585Z,6.43
2018-01-31T03:02:27.049Z,6.60
2018-01-31T03:04:54.527Z,6.27
2018-01-31T03:07:22.023Z,5.73
2018-01-31T03:09:49.502Z,6.32
2018-01-31T03:12:16.971Z,5.53
2018-01-31T03:14:44.432Z,5.60
2018-01-31T03:17:11.877Z,6.93
2018-01-31T03:19:39.344Z,6.07
2018-01-31T03:22:06.815Z,5.87
2018-01-31T03:24:34.259Z,5.67
2018-01-31T03:27:02.085Z,5.60
2018-01-31T03:29:29.559Z,6.77
2018-01-31T03:31:57.023Z,5.83
2018-01-31T03:34:24.491Z,5.50
2018-01-31T03:36:51.967Z,5.70
2018-01-31T03:39:19.413Z,5.90
2018-01-31T03:41:46.855Z,5.80
2018-01-31T03:44:14.312Z,6.00
2018-01-31T03:46:41.772Z,6.00
2018-01-31T03:49:09.229Z,5.30
2018-01-31T03:51:36.684Z,4.80
2018-01-31T03:54:04.149Z,4.90
2018-01-31T03:56:31.614Z,4.83
2018-01-31T03:58:59.091Z,5.47
2018-01-31T04:01:26.547Z,4.40
2018-01-31T04:03:54.007Z,4.30
2018-01-31T04:06:21.490Z,4.50
2018-01-31T04:08:48.947Z,4.93
2018-01-31T04:11:16.389Z,4.77
2018-01-31T04:13:43.863Z,4.00
2018-01-31T04:16:11.322Z,4.60
2018-01-31T04:18:38.782Z,5.40
2018-01-31T04:21:06.248Z,5.82
2018-01-31T04:23:33.707Z,4.80
2018-01-31T04:26:01.158Z,4.90
2018-01-31T04:28:28.631Z,4.27
2018-01-31T04:30:56.085Z,4.83
2018-01-31T04:33:23.559Z,4.40
2018-01-31T04:35:51.030Z,4.90
2018-01-31T04:38:18.487Z,4.70
2018-01-31T04:40:45.924Z,4.07
2018-01-31T04:43:13.398Z,4.30
2018-01-31T04:45:40.837Z,4.40
2018-01-31T04:48:08.295Z,4.23
2018-01-31T04:50:35.792Z,4.37
2018-01-31T04:53:03.256Z,4.77
2018-01-31T04:55:30.714Z,4.77
2018-01-31T04:57:58.204Z,5.00
2018-01-31T05:00:25.679Z,4.10
2018-01-31T05:02:53.130Z,4.30
2018-01-31T05:05:20.603Z,4.77
2018-01-31T05:07:48.048Z,4.30
2018-01-31T05:10:15.511Z,4.63
2018-01-31T05:12:42.972Z,6.43
2018-01-31T05:15:10.418Z,5.10
2018-01-31T05:17:37.856Z,4.20
2018-01-31T05:20:05.316Z,4.43
2018-01-31T05:22:32.779Z,3.90
2018-01-31T05:25:00.244Z,3.70
2018-01-31T05:27:27.716Z,4.20
2018-01-31T05:29:56.115Z,4.07
2018-01-31T05:32:23.580Z,4.60
2018-01-31T05:34:51.051Z,4.20
2018-01-31T05:37:18.511Z,4.00
2018-01-31T05:39:45.965Z,4.90
2018-01-31T05:42:13.420Z,4.67
2018-01-31T05:44:40.860Z,4.30
2018-01-31T05:47:08.314Z,4.53
2018-01-31T05:49:35.782Z,4.50
2018-01-31T05:52:04.044Z,4.30
2018-01-31T05:54:31.479Z,4.90
2018-01-31T05:56:58.950Z,4.60
2018-01-31T05:59:26.388Z,4.27
2018-01-31T06:01:56.619Z,4.30
2018-01-31T06:04:24.097Z,4.80
2018-01-31T06:06:51.548Z,5.53
2018-01-31T06:09:19.008Z,4.70
2018-01-31T06:11:46.472Z,5.20
2018-01-31T06:14:13.917Z,5.00
2018-01-31T06:16:41.368Z,5.00
2018-01-31T06:19:08.850Z,5.10
2018-01-31T06:21:36.303Z,5.32
2018-01-31T06:24:03.767Z,4.20
2018-01-31T06:26:31.225Z,4.03
2018-01-31T06:28:58.691Z,4.77
2018-01-31T06:31:26.133Z,4.60
2018-01-31T06:33:53.598Z,4.23
2018-01-31T06:36:21.067Z,4.60
2018-01-31T06:38:48.523Z,5.17
2018-01-31T06:41:15.984Z,5.20
2018-01-31T06:43:43.447Z,5.00
2018-01-31T06:46:10.889Z,4.30
2018-01-31T06:48:38.360Z,4.80
2018-01-31T06:51:05.837Z,4.13
2018-01-31T06:53:33.286Z,4.07
2018-01-31T06:56:00.741Z,4.47
2018-01-31T06:58:28.189Z,4.20
2018-01-31T07:00:55.637Z,4.73
2018-01-31T07:03:23.155Z,4.13
2018-01-31T07:05:50.632Z,4.97
2018-01-31T07:08:18.099Z,4.73
2018-01-31T07:10:45.571Z,5.50
2018-01-31T07:13:13.021Z,5.47
2018-01-31T07:15:40.503Z,4.40
2018-01-31T07:18:07.952Z,5.17
2018-01-31T07:20:35.413Z,4.87
2018-01-31T07:23:02.895Z,5.00
2018-01-31T07:25:30.342Z,4.70
2018-01-31T07:27:57.798Z,4.40
2018-01-31T07:30:25.271Z,4.63
2018-01-31T07:32:52.726Z,4.43
2018-01-31T07:35:20.188Z,4.30
2018-01-31T07:37:47.611Z,4.50
2018-01-31T07:40:15.023Z,4.27
2018-01-31T07:42:42.434Z,4.50
2018-01-31T07:45:09.876Z,6.10
2018-01-31T07:47:37.301Z,3.87
2018-01-31T07:50:04.713Z,4.60
2018-01-31T07:52:32.126Z,5.20
2018-01-31T07:54:59.557Z,4.50
2018-01-31T07:57:27.080Z,4.20
2018-01-31T07:59:54.830Z,4.80
2018-01-31T08:02:22.238Z,3.90
2018-01-31T08:04:49.646Z,3.90
2018-01-31T08:07:17.055Z,4.77
2018-01-31T08:09:44.479Z,5.10
2018-01-31T08:12:11.881Z,5.33
2018-01-31T08:14:39.302Z,4.67
2018-01-31T08:17:06.721Z,4.27
2018-01-31T08:19:34.147Z,5.53
2018-01-31T08:22:01.551Z,4.00
2018-01-31T08:24:28.975Z,3.70
2018-01-31T08:26:56.394Z,4.50
2018-01-31T08:29:23.809Z,5.03
2018-01-31T08:31:51.226Z,4.57
2018-01-31T08:34:18.655Z,4.70
2018-01-31T08:36:46.058Z,4.67
2018-01-31T08:39:13.477Z,4.47
2018-01-31T08:41:40.902Z,3.93
2018-01-31T08:44:08.314Z,4.13
2018-01-31T08:46:35.740Z,4.87
2018-01-31T08:49:03.146Z,4.23
2018-01-31T08:51:30.553Z,4.50
2018-01-31T08:53:57.970Z,4.43
2018-01-31T08:56:25.381Z,5.70
2018-01-31T08:58:52.800Z,4.17
2018-01-31T09:01:20.214Z,4.13
2018-01-31T09:03:47.626Z,4.10
2018-01-31T09:06:15.050Z,5.00
2018-01-31T09:08:42.459Z,4.50
2018-01-31T09:11:09.876Z,4.73
2018-01-31T09:13:37.294Z,4.10
2018-01-31T09:16:04.697Z,4.40
2018-01-31T09:18:32.102Z,4.80
2018-01-31T09:20:59.546Z,4.80
2018-01-31T09:23:26.946Z,4.17
2018-01-31T09:25:54.379Z,3.97
2018-01-31T09:28:21.824Z,3.70
2018-01-31T09:30:49.241Z,4.43
2018-01-31T09:33:16.647Z,3.83
2018-01-31T09:35:44.116Z,4.27
2018-01-31T09:38:11.506Z,4.80
2018-01-31T09:40:38.930Z,5.00
2018-01-31T09:43:06.360Z,5.23
2018-01-31T09:45:33.779Z,5.10
2018-01-31T09:48:01.221Z,3.97
2018-01-31T09:50:28.630Z,3.90
2018-01-31T09:52:56.072Z,4.23
2018-01-31T09:55:23.495Z,3.90
2018-01-31T09:57:50.953Z,4.40
2018-01-31T10:00:18.388Z,4.13
2018-01-31T10:02:45.829Z,3.73
2018-01-31T10:05:13.243Z,3.80
2018-01-31T10:07:40.693Z,4.40
2018-01-31T10:10:08.118Z,4.27
2018-01-31T10:12:35.559Z,4.43
2018-01-31T10:15:02.987Z,4.07
2018-01-31T10:17:30.403Z,4.03
2018-01-31T10:19:57.819Z,5.10
2018-01-31T10:22:25.242Z,3.93
2018-01-31T10:24:52.653Z,4.00
2018-01-31T10:27:20.058Z,4.40
2018-01-31T10:29:47.484Z,4.50
2018-01-31T10:32:14.890Z,3.30
2018-01-31T10:34:42.307Z,4.33
2018-01-31T10:37:09.728Z,4.07
2018-01-31T10:39:37.142Z,5.17
2018-01-31T10:42:04.548Z,3.93
2018-01-31T10:44:31.978Z,7.03
2018-01-31T10:46:59.387Z,4.30
2018-01-31T10:49:26.798Z,3.93
2018-01-31T10:51:54.223Z,3.70
2018-01-31T10:57:28.722Z,4.10
2018-01-31T10:59:16.502Z,4.20
2018-01-31T11:01:43.918Z,4.20
2018-01-31T11:04:11.350Z,3.87
2018-01-31T11:06:38.779Z,4.30
2018-01-31T11:09:06.196Z,3.70
2018-01-31T11:11:33.836Z,4.00
2018-01-31T11:14:01.279Z,4.60
2018-01-31T11:16:28.695Z,4.87
2018-01-31T11:18:56.115Z,5.73
2018-01-31T11:21:23.555Z,4.43
2018-01-31T11:23:50.970Z,5.13
2018-01-31T11:26:18.395Z,4.50
2018-01-31T11:28:45.853Z,4.30
2018-01-31T11:31:13.274Z,4.00
2018-01-31T11:33:40.694Z,4.20
2018-01-31T11:36:08.118Z,4.90
2018-01-31T11:38:35.552Z,4.80
2018-01-31T11:41:02.982Z,4.10
2018-01-31T11:43:30.503Z,5.00
2018-01-31T11:45:57.912Z,4.27
2018-01-31T11:48:25.341Z,5.53
2018-01-31T11:50:52.774Z,5.50
2018-01-31T11:53:20.243Z,4.10
2018-01-31T11:55:47.679Z,4.10
2018-01-31T11:58:15.155Z,5.00
2018-01-31T12:00:48.506Z,4.47
2018-01-31T12:03:15.941Z,3.90
2018-01-31T12:05:43.387Z,4.67
2018-01-31T12:08:10.820Z,4.50
2018-01-31T12:10:42.971Z,5.37
2018-01-31T12:13:22.186Z,5.27
2018-01-31T12:16:01.466Z,6.90
2018-01-31T12:18:37.431Z,6.00
2018-01-31T12:21:16.847Z,4.17
2018-01-31T12:23:56.051Z,4.30
2018-01-31T12:26:35.222Z,4.03
2018-01-31T12:29:14.434Z,3.80
2018-01-31T12:45:11.920Z,4.63
2018-01-31T12:47:51.247Z,3.40
2018-01-31T12:50:30.517Z,3.30
2018-01-31T12:53:09.748Z,3.83
2018-01-31T12:55:49.031Z,3.70
2018-01-31T12:58:28.195Z,3.40
2018-01-31T13:01:07.327Z,3.30
2018-01-31T13:03:46.382Z,3.40
2018-01-31T13:06:25.542Z,4.00
2018-01-31T13:09:04.594Z,3.70
2018-01-31T13:11:43.818Z,3.33
2018-01-31T13:14:22.999Z,3.70
2018-01-31T13:17:02.128Z,3.37
2018-01-31T13:19:41.251Z,3.53
2018-01-31T13:35:54.854Z,3.93
2018-01-31T13:38:34.037Z,3.67
2018-01-31T13:41:13.198Z,3.50
2018-01-31T13:43:52.362Z,3.20
2018-01-31T13:46:31.465Z,3.37
2018-01-31T14:02:42.125Z,3.73
2018-01-31T14:05:21.202Z,3.17
2018-01-31T14:08:00.348Z,3.70
2018-01-31T14:24:12.821Z,4.20
2018-01-31T14:26:51.895Z,3.93
2018-01-31T14:29:31.055Z,4.07
2018-01-31T14:32:10.203Z,4.20
2018-01-31T14:34:49.516Z,5.00
2018-01-31T14:37:16.389Z,4.53
2018-01-31T14:39:43.263Z,4.30
2018-01-31T14:42:10.150Z,4.77
2018-01-31T14:44:37.030Z,4.70
2018-01-31T14:47:03.902Z,4.43
2018-01-31T14:49:30.791Z,4.67
2018-01-31T14:51:57.674Z,4.13
2018-01-31T14:54:24.548Z,4.47
2018-01-31T14:56:51.426Z,4.30
2018-01-31T14:59:18.311Z,4.57
2018-01-31T15:01:45.187Z,4.50
2018-01-31T15:04:12.078Z,3.93
2018-01-31T15:06:38.957Z,4.00
2018-01-31T15:09:05.831Z,6.03
2018-01-31T15:11:32.908Z,6.20
2018-01-31T15:13:59.794Z,5.27
2018-01-31T15:16:26.681Z,4.03
2018-01-31T15:18:53.563Z,4.90
2018-01-31T15:21:20.471Z,4.60
2018-01-31T15:23:47.355Z,4.47
2018-01-31T15:26:14.230Z,4.80
2018-01-31T15:28:41.106Z,4.60
2018-01-31T15:31:08.002Z,4.90
2018-01-31T15:33:34.870Z,4.83
2018-01-31T15:36:01.747Z,5.43
2018-01-31T15:38:28.661Z,5.80
2018-01-31T15:40:55.530Z,6.20
2018-01-31T15:43:22.406Z,5.30
2018-01-31T15:45:49.301Z,5.30
2018-01-31T15:48:16.186Z,6.43
2018-01-31T15:50:43.074Z,6.17
2018-01-31T15:53:09.963Z,5.50
2018-01-31T15:55:36.839Z,5.90
2018-01-31T15:58:03.736Z,5.63
2018-01-31T16:00:30.611Z,6.10
2018-01-31T16:02:57.494Z,7.37
2018-01-31T16:05:24.383Z,7.83
2018-01-31T16:07:51.278Z,6.63
2018-01-31T16:10:18.151Z,6.27
2018-01-31T16:12:45.062Z,6.70
2018-01-31T16:15:11.955Z,6.53
2018-01-31T16:17:39.382Z,6.30
2018-01-31T16:20:18.533Z,6.20
2018-01-31T16:22:45.951Z,5.70
2018-01-31T16:25:13.379Z,6.13
2018-01-31T16:27:52.531Z,6.00
2018-01-31T16:30:22.465Z,5.60
2018-01-31T16:33:01.551Z,5.40
2018-01-31T16:35:29.044Z,5.70
2018-01-31T16:37:56.458Z,6.27
2018-01-31T16:40:23.900Z,5.50
2018-01-31T16:42:51.305Z,5.40
2018-01-31T16:45:18.729Z,5.17
2018-01-31T16:47:46.187Z,6.03
2018-01-31T16:50:13.601Z,6.20
2018-01-31T16:52:41.011Z,5.90
2018-01-31T16:55:08.474Z,6.60
2018-01-31T16:57:35.902Z,5.67
2018-01-31T17:00:03.327Z,4.93
2018-01-31T17:02:30.739Z,5.13
2018-01-31T17:04:58.166Z,5.00
2018-01-31T17:07:25.606Z,5.00
2018-01-31T17:09:53.020Z,4.73
2018-01-31T17:12:20.442Z,5.67
2018-01-31T17:14:47.867Z,5.60
2018-01-31T17:17:15.278Z,5.47
2018-01-31T17:19:42.698Z,5.30
2018-01-31T17:22:10.118Z,5.67
2018-01-31T17:24:37.540Z,5.20
2018-01-31T17:27:04.947Z,5.33
2018-01-31T17:29:32.375Z,5.40
2018-01-31T17:31:59.802Z,5.53
2018-01-31T17:34:27.210Z,5.00
2018-01-31T17:36:54.582Z,5.77
2018-01-31T17:39:22.053Z,5.40
2018-01-31T17:41:49.463Z,6.00
2018-01-31T17:44:16.874Z,6.07
2018-01-31T17:46:44.303Z,5.43
2018-01-31T17:49:11.715Z,6.43
2018-01-31T17:51:39.123Z,5.93
2018-01-31T17:54:06.608Z,5.70
2018-01-31T17:56:33.959Z,5.60
2018-01-31T17:59:01.729Z,6.13
2018-01-31T18:01:29.197Z,6.30
2018-01-31T18:03:56.617Z,5.73
2018-01-31T18:06:28.046Z,6.30
2018-01-31T18:08:55.453Z,6.70
2018-01-31T18:11:22.866Z,6.90
2018-01-31T18:13:50.295Z,7.40
2018-01-31T18:16:17.727Z,6.97
2018-01-31T18:18:45.150Z,6.37
2018-01-31T18:21:12.572Z,6.83
2018-01-31T18:23:39.976Z,6.13
2018-01-31T18:26:07.490Z,6.67
2018-01-31T18:28:34.891Z,6.50
2018-01-31T18:31:02.301Z,6.80
2018-01-31T18:33:29.721Z,6.40
2018-01-31T18:35:57.131Z,7.03
2018-01-31T18:38:24.547Z,7.80
2018-01-31T18:40:51.973Z,6.20
2018-01-31T18:43:19.389Z,6.33
2018-01-31T18:45:46.972Z,7.37
2018-01-31T18:48:14.821Z,7.40
2018-01-31T18:50:42.240Z,7.50
2018-01-31T18:53:09.650Z,7.40
2018-01-31T18:55:37.098Z,6.53
2018-01-31T18:58:04.525Z,7.30
2018-01-31T19:00:31.935Z,7.30
2018-01-31T19:02:59.339Z,7.00
2018-01-31T19:05:26.770Z,7.57
2018-01-31T19:07:54.179Z,7.70
2018-01-31T19:10:21.599Z,7.00
2018-01-31T19:12:49.030Z,6.87
2018-01-31T19:15:16.441Z,6.40
2018-01-31T19:17:43.854Z,8.20
2018-01-31T19:20:11.284Z,8.33
2018-01-31T19:22:38.690Z,7.87
2018-01-31T19:25:06.095Z,7.10
2018-01-31T19:27:33.533Z,7.03
2018-01-31T19:30:00.943Z,7.30
2018-01-31T19:32:28.355Z,7.57
2018-01-31T19:34:55.791Z,6.30
2018-01-31T19:37:23.200Z,6.67
2018-01-31T19:39:50.615Z,7.43
2018-01-31T19:42:18.047Z,7.33
2018-01-31T19:44:45.451Z,7.10
2018-01-31T19:47:12.853Z,5.50
2018-01-31T19:49:40.274Z,6.10
2018-01-31T19:52:07.678Z,5.73
2018-01-31T19:54:35.086Z,6.10
2018-01-31T19:57:02.518Z,6.07
2018-01-31T19:59:29.929Z,5.60
2018-01-31T20:01:57.349Z,5.27
2018-01-31T20:04:24.758Z,6.00
2018-01-31T20:06:52.166Z,5.87
2018-01-31T20:09:19.634Z,5.60
2018-01-31T20:11:47.023Z,6.12
2018-01-31T20:14:14.427Z,4.90
2018-01-31T20:16:41.847Z,5.57
2018-01-31T20:19:09.258Z,5.80
2018-01-31T20:21:36.666Z,5.70
2018-01-31T20:24:04.086Z,5.30
2018-01-31T20:26:31.494Z,4.40
2018-01-31T20:28:58.910Z,5.57
2018-01-31T20:31:26.330Z,5.13
2018-01-31T20:33:53.742Z,4.67
2018-01-31T20:36:21.151Z,5.07
2018-01-31T20:38:48.575Z,5.13
2018-01-31T20:41:15.998Z,5.03
2018-01-31T20:43:43.418Z,5.37
2018-01-31T20:46:10.863Z,5.30
2018-01-31T20:48:38.285Z,5.97
2018-01-31T20:51:05.707Z,4.97
2018-01-31T20:53:33.135Z,5.07
2018-01-31T20:56:00.567Z,4.50
2018-01-31T20:58:27.976Z,6.37
2018-01-31T21:00:55.455Z,6.67
2018-01-31T21:03:22.879Z,4.83
2018-01-31T21:05:50.305Z,4.93
2018-01-31T21:08:17.731Z,7.33
2018-01-31T21:10:45.138Z,6.73
2018-01-31T21:13:12.562Z,6.40
2018-01-31T21:15:40.016Z,6.65
2018-01-31T21:18:07.427Z,6.70
2018-01-31T21:20:34.854Z,6.37
2018-01-31T21:23:02.267Z,6.27
2018-01-31T21:25:29.670Z,4.83
2018-01-31T21:27:57.099Z,4.70
2018-01-31T21:30:24.511Z,5.40
2018-01-31T21:32:51.939Z,5.50
2018-01-31T21:35:19.354Z,5.07
2018-01-31T21:37:46.757Z,4.47
2018-01-31T21:40:14.186Z,5.27
2018-01-31T21:42:41.608Z,4.60
2018-01-31T21:45:09.018Z,6.20
2018-01-31T21:47:36.443Z,4.97
2018-01-31T21:50:03.863Z,5.43
2018-01-31T21:52:31.307Z,5.95
2018-01-31T21:54:58.728Z,5.37
2018-01-31T21:57:38.023Z,5.17
2018-01-31T22:00:05.467Z,4.93
2018-01-31T22:02:32.883Z,6.33
2018-01-31T22:05:00.290Z,4.50
2018-01-31T22:07:27.727Z,5.07
2018-01-31T22:09:55.136Z,4.47
2018-01-31T22:12:22.556Z,4.53
2018-01-31T22:14:49.978Z,4.90
2018-01-31T22:17:17.391Z,4.70
2018-01-31T22:19:44.811Z,4.90
2018-01-31T22:22:12.225Z,4.53
2018-01-31T22:24:39.638Z,5.10
2018-01-31T22:27:07.054Z,4.90
2018-01-31T22:29:34.475Z,4.60
2018-01-31T22:32:01.896Z,4.30
2018-01-31T22:34:29.298Z,4.50
2018-01-31T22:36:56.724Z,5.20
2018-01-31T22:39:24.130Z,4.70
2018-01-31T22:41:51.546Z,4.10
2018-01-31T22:44:18.976Z,4.70
2018-01-31T22:46:46.387Z,4.60
2018-01-31T22:49:13.803Z,4.57
2018-01-31T22:51:41.226Z,4.40
2018-01-31T22:54:08.639Z,4.13
2018-01-31T22:56:36.049Z,3.80
2018-01-31T22:59:03.475Z,5.10
2018-01-31T23:01:30.887Z,4.53
2018-01-31T23:03:58.298Z,4.40
2018-01-31T23:06:25.721Z,5.00
2018-01-31T23:08:53.147Z,4.30
2018-01-31T23:11:20.636Z,4.90
2018-01-31T23:13:53.554Z,3.80
2018-01-31T23:16:21.056Z,3.80
2018-01-31T23:18:48.478Z,4.50
2018-01-31T23:21:15.910Z,4.10
2018-01-31T23:23:43.327Z,4.20
2018-01-31T23:26:10.746Z,4.10
2018-01-31T23:28:38.180Z,3.80
2018-01-31T23:31:05.583Z,4.90
2018-01-31T23:33:33.004Z,4.50
2018-01-31T23:36:00.433Z,4.30
2018-01-31T23:38:27.851Z,4.20
2018-01-31T23:40:55.283Z,3.90
2018-01-31T23:43:22.686Z,4.53
2018-01-31T23:45:50.362Z,4.53
2018-01-31T23:48:17.796Z,5.17
2018-01-31T23:50:45.210Z,4.73
2018-01-31T23:53:12.623Z,4.40
2018-01-31T23:55:40.056Z,4.07
2018-01-31T23:58:07.471Z,4.40
